sensor_id;sensor_type;location;lat;lon;timestamp;P1;durP1;ratioP1;P2;durP2;ratioP2
17340;SDS011;8788;49.930;8.660;2023-05-16T00:02:00;21.25;;;16.55;;
17340;SDS011;8788;49.930;8.660;2023-05-16T00:04:28;23.20;;;15.65;;
17340;SDS011;8788;49.930;8.660;2023-05-16T00:06:56;18.42;;;14.70;;
17340;SDS011;8788;49.930;8.660;2023-05-16T00:09:25;22.63;;;16.13;;
17340;SDS011;8788;49.930;8.660;2023-05-16T00:11:52;26.17;;;17.02;;
17340;SDS011;8788;49.930;8.660;2023-05-16T00:14:19;23.63;;;16.38;;
17340;SDS011;8788;49.930;8.660;2023-05-16T00:16:46;25.67;;;17.30;;
17340;SDS011;8788;49.930;8.660;2023-05-16T00:19:13;24.40;;;16.52;;
17340;SDS011;8788;49.930;8.660;2023-05-16T00:21:40;23.42;;;16.75;;
17340;SDS011;8788;49.930;8.660;2023-05-16T00:24:08;22.52;;;15.80;;
17340;SDS011;8788;49.930;8.660;2023-05-16T00:26:37;21.13;;;16.17;;
17340;SDS011;8788;49.930;8.660;2023-05-16T00:29:04;21.23;;;16.20;;
17340;SDS011;8788;49.930;8.660;2023-05-16T00:31:31;21.08;;;15.98;;
17340;SDS011;8788;49.930;8.660;2023-05-16T00:33:59;23.42;;;16.83;;
17340;SDS011;8788;49.930;8.660;2023-05-16T00:36:26;23.10;;;16.85;;
17340;SDS011;8788;49.930;8.660;2023-05-16T00:38:55;26.10;;;18.60;;
17340;SDS011;8788;49.930;8.660;2023-05-16T00:41:22;26.73;;;18.75;;
17340;SDS011;8788;49.930;8.660;2023-05-16T00:43:50;24.80;;;17.92;;
17340;SDS011;8788;49.930;8.660;2023-05-16T00:46:18;26.95;;;18.48;;
17340;SDS011;8788;49.930;8.660;2023-05-16T00:48:45;26.52;;;18.50;;
17340;SDS011;8788;49.930;8.660;2023-05-16T00:51:12;24.85;;;18.45;;
17340;SDS011;8788;49.930;8.660;2023-05-16T00:53:39;28.67;;;19.58;;
17340;SDS011;8788;49.930;8.660;2023-05-16T00:56:07;28.25;;;19.05;;
17340;SDS011;8788;49.930;8.660;2023-05-16T00:58:34;27.02;;;19.77;;
17340;SDS011;8788;49.930;8.660;2023-05-16T01:01:04;28.27;;;18.92;;
17340;SDS011;8788;49.930;8.660;2023-05-16T01:03:32;26.83;;;19.65;;
17340;SDS011;8788;49.930;8.660;2023-05-16T01:05:59;23.88;;;18.83;;
17340;SDS011;8788;49.930;8.660;2023-05-16T01:08:26;25.63;;;18.13;;
17340;SDS011;8788;49.930;8.660;2023-05-16T01:10:57;26.25;;;19.20;;
17340;SDS011;8788;49.930;8.660;2023-05-16T01:13:30;30.73;;;19.58;;
17340;SDS011;8788;49.930;8.660;2023-05-16T01:16:08;24.92;;;18.80;;
17340;SDS011;8788;49.930;8.660;2023-05-16T01:18:50;26.25;;;18.90;;
17340;SDS011;8788;49.930;8.660;2023-05-16T01:21:24;26.17;;;19.27;;
17340;SDS011;8788;49.930;8.660;2023-05-16T01:24:06;29.15;;;19.95;;
17340;SDS011;8788;49.930;8.660;2023-05-16T01:26:40;27.63;;;20.17;;
17340;SDS011;8788;49.930;8.660;2023-05-16T01:29:08;27.30;;;19.38;;
17340;SDS011;8788;49.930;8.660;2023-05-16T01:31:36;25.85;;;18.02;;
17340;SDS011;8788;49.930;8.660;2023-05-16T01:34:03;26.85;;;19.92;;
17340;SDS011;8788;49.930;8.660;2023-05-16T01:36:32;26.98;;;19.88;;
17340;SDS011;8788;49.930;8.660;2023-05-16T01:39:06;25.08;;;19.27;;
17340;SDS011;8788;49.930;8.660;2023-05-16T01:41:46;29.05;;;18.88;;
17340;SDS011;8788;49.930;8.660;2023-05-16T01:44:22;24.90;;;18.63;;
17340;SDS011;8788;49.930;8.660;2023-05-16T01:46:55;25.88;;;19.92;;
17340;SDS011;8788;49.930;8.660;2023-05-16T01:49:26;25.88;;;18.92;;
17340;SDS011;8788;49.930;8.660;2023-05-16T01:51:59;25.38;;;19.38;;
17340;SDS011;8788;49.930;8.660;2023-05-16T01:54:30;23.05;;;17.92;;
17340;SDS011;8788;49.930;8.660;2023-05-16T01:57:01;26.90;;;19.13;;
17340;SDS011;8788;49.930;8.660;2023-05-16T01:59:32;25.67;;;17.90;;
17340;SDS011;8788;49.930;8.660;2023-05-16T02:02:00;24.27;;;18.55;;
17340;SDS011;8788;49.930;8.660;2023-05-16T02:04:29;28.75;;;20.08;;
17340;SDS011;8788;49.930;8.660;2023-05-16T02:06:56;26.08;;;19.67;;
17340;SDS011;8788;49.930;8.660;2023-05-16T02:09:24;25.25;;;18.80;;
17340;SDS011;8788;49.930;8.660;2023-05-16T02:11:51;24.30;;;17.73;;
17340;SDS011;8788;49.930;8.660;2023-05-16T02:14:20;24.02;;;18.33;;
17340;SDS011;8788;49.930;8.660;2023-05-16T02:16:49;23.65;;;18.33;;
17340;SDS011;8788;49.930;8.660;2023-05-16T02:19:16;23.55;;;18.25;;
17340;SDS011;8788;49.930;8.660;2023-05-16T02:21:43;21.88;;;18.38;;
17340;SDS011;8788;49.930;8.660;2023-05-16T02:24:10;23.75;;;18.38;;
17340;SDS011;8788;49.930;8.660;2023-05-16T02:26:37;20.58;;;17.58;;
17340;SDS011;8788;49.930;8.660;2023-05-16T02:29:04;23.65;;;18.13;;
17340;SDS011;8788;49.930;8.660;2023-05-16T02:31:32;21.92;;;17.00;;
17340;SDS011;8788;49.930;8.660;2023-05-16T02:34:00;25.35;;;17.55;;
17340;SDS011;8788;49.930;8.660;2023-05-16T02:36:27;22.70;;;16.52;;
17340;SDS011;8788;49.930;8.660;2023-05-16T02:38:55;23.20;;;17.73;;
17340;SDS011;8788;49.930;8.660;2023-05-16T02:41:22;24.92;;;18.55;;
17340;SDS011;8788;49.930;8.660;2023-05-16T02:43:49;23.05;;;17.58;;
17340;SDS011;8788;49.930;8.660;2023-05-16T02:46:20;22.08;;;17.48;;
17340;SDS011;8788;49.930;8.660;2023-05-16T02:48:53;25.10;;;17.25;;
17340;SDS011;8788;49.930;8.660;2023-05-16T02:51:22;22.60;;;17.83;;
17340;SDS011;8788;49.930;8.660;2023-05-16T02:53:50;21.75;;;16.60;;
17340;SDS011;8788;49.930;8.660;2023-05-16T02:56:17;24.42;;;17.25;;
17340;SDS011;8788;49.930;8.660;2023-05-16T02:58:46;23.80;;;17.13;;
17340;SDS011;8788;49.930;8.660;2023-05-16T03:01:14;19.85;;;16.67;;
17340;SDS011;8788;49.930;8.660;2023-05-16T03:03:42;23.27;;;16.05;;
17340;SDS011;8788;49.930;8.660;2023-05-16T03:06:10;19.40;;;15.25;;
17340;SDS011;8788;49.930;8.660;2023-05-16T03:08:37;21.85;;;15.20;;
17340;SDS011;8788;49.930;8.660;2023-05-16T03:11:04;22.55;;;16.35;;
17340;SDS011;8788;49.930;8.660;2023-05-16T03:13:31;23.73;;;16.25;;
17340;SDS011;8788;49.930;8.660;2023-05-16T03:15:59;20.40;;;15.98;;
17340;SDS011;8788;49.930;8.660;2023-05-16T03:18:26;21.85;;;15.77;;
17340;SDS011;8788;49.930;8.660;2023-05-16T03:20:53;20.75;;;16.05;;
17340;SDS011;8788;49.930;8.660;2023-05-16T03:23:23;19.77;;;14.77;;
17340;SDS011;8788;49.930;8.660;2023-05-16T03:25:51;21.35;;;15.75;;
17340;SDS011;8788;49.930;8.660;2023-05-16T03:28:19;23.10;;;16.30;;
17340;SDS011;8788;49.930;8.660;2023-05-16T03:30:46;24.20;;;17.05;;
17340;SDS011;8788;49.930;8.660;2023-05-16T03:33:13;19.17;;;15.35;;
17340;SDS011;8788;49.930;8.660;2023-05-16T03:35:41;20.25;;;15.23;;
17340;SDS011;8788;49.930;8.660;2023-05-16T03:38:09;18.73;;;14.48;;
17340;SDS011;8788;49.930;8.660;2023-05-16T03:40:38;22.30;;;14.82;;
17340;SDS011;8788;49.930;8.660;2023-05-16T03:43:05;22.23;;;15.35;;
17340;SDS011;8788;49.930;8.660;2023-05-16T03:45:32;18.75;;;14.77;;
17340;SDS011;8788;49.930;8.660;2023-05-16T03:47:59;20.67;;;14.57;;
17340;SDS011;8788;49.930;8.660;2023-05-16T03:50:26;20.77;;;16.08;;
17340;SDS011;8788;49.930;8.660;2023-05-16T03:52:53;21.00;;;15.60;;
17340;SDS011;8788;49.930;8.660;2023-05-16T03:55:20;21.23;;;15.60;;
17340;SDS011;8788;49.930;8.660;2023-05-16T03:57:49;21.83;;;15.02;;
17340;SDS011;8788;49.930;8.660;2023-05-16T04:00:16;23.83;;;16.08;;
17340;SDS011;8788;49.930;8.660;2023-05-16T04:02:44;21.77;;;14.52;;
17340;SDS011;8788;49.930;8.660;2023-05-16T04:05:11;21.73;;;15.00;;
17340;SDS011;8788;49.930;8.660;2023-05-16T04:07:38;21.52;;;15.68;;
17340;SDS011;8788;49.930;8.660;2023-05-16T04:10:06;28.17;;;15.45;;
17340;SDS011;8788;49.930;8.660;2023-05-16T04:12:34;19.63;;;14.65;;
17340;SDS011;8788;49.930;8.660;2023-05-16T04:15:06;24.90;;;15.80;;
17340;SDS011;8788;49.930;8.660;2023-05-16T04:17:33;20.83;;;14.07;;
17340;SDS011;8788;49.930;8.660;2023-05-16T04:20:00;25.23;;;15.25;;
17340;SDS011;8788;49.930;8.660;2023-05-16T04:22:28;22.90;;;15.57;;
17340;SDS011;8788;49.930;8.660;2023-05-16T04:24:56;18.65;;;14.77;;
17340;SDS011;8788;49.930;8.660;2023-05-16T04:27:23;20.20;;;14.85;;
17340;SDS011;8788;49.930;8.660;2023-05-16T04:29:51;21.65;;;15.32;;
17340;SDS011;8788;49.930;8.660;2023-05-16T04:32:19;20.23;;;14.35;;
17340;SDS011;8788;49.930;8.660;2023-05-16T04:34:48;19.73;;;13.98;;
17340;SDS011;8788;49.930;8.660;2023-05-16T04:37:18;16.25;;;13.05;;
17340;SDS011;8788;49.930;8.660;2023-05-16T04:39:45;20.15;;;13.00;;
17340;SDS011;8788;49.930;8.660;2023-05-16T04:42:12;19.38;;;13.50;;
17340;SDS011;8788;49.930;8.660;2023-05-16T04:44:40;18.92;;;13.40;;
17340;SDS011;8788;49.930;8.660;2023-05-16T04:47:08;19.17;;;12.73;;
17340;SDS011;8788;49.930;8.660;2023-05-16T04:49:36;16.90;;;11.43;;
17340;SDS011;8788;49.930;8.660;2023-05-16T04:52:04;15.98;;;10.35;;
17340;SDS011;8788;49.930;8.660;2023-05-16T04:54:33;16.05;;;10.68;;
17340;SDS011;8788;49.930;8.660;2023-05-16T04:57:00;13.77;;;10.55;;
17340;SDS011;8788;49.930;8.660;2023-05-16T04:59:27;12.40;;;9.35;;
17340;SDS011;8788;49.930;8.660;2023-05-16T05:01:54;13.63;;;9.13;;
17340;SDS011;8788;49.930;8.660;2023-05-16T05:04:21;11.23;;;6.90;;
17340;SDS011;8788;49.930;8.660;2023-05-16T05:06:50;11.98;;;7.82;;
17340;SDS011;8788;49.930;8.660;2023-05-16T05:09:17;7.90;;;5.60;;
17340;SDS011;8788;49.930;8.660;2023-05-16T05:11:44;6.72;;;5.38;;
17340;SDS011;8788;49.930;8.660;2023-05-16T05:14:11;6.72;;;4.65;;
17340;SDS011;8788;49.930;8.660;2023-05-16T05:16:38;5.72;;;4.28;;
17340;SDS011;8788;49.930;8.660;2023-05-16T05:19:05;6.32;;;4.35;;
17340;SDS011;8788;49.930;8.660;2023-05-16T05:21:33;5.43;;;4.10;;
17340;SDS011;8788;49.930;8.660;2023-05-16T05:24:01;6.90;;;3.92;;
17340;SDS011;8788;49.930;8.660;2023-05-16T05:26:28;6.25;;;3.53;;
17340;SDS011;8788;49.930;8.660;2023-05-16T05:28:55;4.70;;;3.30;;
17340;SDS011;8788;49.930;8.660;2023-05-16T05:31:22;5.07;;;3.58;;
17340;SDS011;8788;49.930;8.660;2023-05-16T05:33:50;7.32;;;3.15;;
17340;SDS011;8788;49.930;8.660;2023-05-16T05:36:17;3.10;;;2.58;;
17340;SDS011;8788;49.930;8.660;2023-05-16T05:38:44;3.00;;;2.60;;
17340;SDS011;8788;49.930;8.660;2023-05-16T05:41:12;4.80;;;2.40;;
17340;SDS011;8788;49.930;8.660;2023-05-16T05:43:39;2.70;;;2.08;;
17340;SDS011;8788;49.930;8.660;2023-05-16T05:46:07;4.50;;;2.15;;
17340;SDS011;8788;49.930;8.660;2023-05-16T05:48:34;3.20;;;2.08;;
17340;SDS011;8788;49.930;8.660;2023-05-16T05:51:02;2.47;;;1.73;;
17340;SDS011;8788;49.930;8.660;2023-05-16T05:53:29;2.30;;;1.85;;
17340;SDS011;8788;49.930;8.660;2023-05-16T05:55:56;5.20;;;1.88;;
17340;SDS011;8788;49.930;8.660;2023-05-16T05:58:24;1.73;;;1.40;;
17340;SDS011;8788;49.930;8.660;2023-05-16T06:00:52;1.80;;;1.38;;
17340;SDS011;8788;49.930;8.660;2023-05-16T06:03:19;2.95;;;1.60;;
17340;SDS011;8788;49.930;8.660;2023-05-16T06:05:46;1.92;;;1.42;;
17340;SDS011;8788;49.930;8.660;2023-05-16T06:08:13;1.63;;;1.50;;
17340;SDS011;8788;49.930;8.660;2023-05-16T06:10:40;1.67;;;1.58;;
17340;SDS011;8788;49.930;8.660;2023-05-16T06:13:07;3.08;;;1.52;;
17340;SDS011;8788;49.930;8.660;2023-05-16T06:15:36;2.08;;;1.40;;
17340;SDS011;8788;49.930;8.660;2023-05-16T06:18:03;1.58;;;1.48;;
17340;SDS011;8788;49.930;8.660;2023-05-16T06:20:30;1.77;;;1.30;;
17340;SDS011;8788;49.930;8.660;2023-05-16T06:22:57;2.50;;;2.03;;
17340;SDS011;8788;49.930;8.660;2023-05-16T06:25:24;1.45;;;0.98;;
17340;SDS011;8788;49.930;8.660;2023-05-16T06:27:51;3.30;;;1.50;;
17340;SDS011;8788;49.930;8.660;2023-05-16T06:30:18;3.22;;;1.55;;
17340;SDS011;8788;49.930;8.660;2023-05-16T06:32:47;2.15;;;1.52;;
17340;SDS011;8788;49.930;8.660;2023-05-16T06:35:14;1.20;;;1.10;;
17340;SDS011;8788;49.930;8.660;2023-05-16T06:37:41;1.77;;;1.20;;
17340;SDS011;8788;49.930;8.660;2023-05-16T06:40:08;1.20;;;1.10;;
17340;SDS011;8788;49.930;8.660;2023-05-16T06:42:36;1.13;;;1.00;;
17340;SDS011;8788;49.930;8.660;2023-05-16T06:45:04;1.05;;;0.90;;
17340;SDS011;8788;49.930;8.660;2023-05-16T06:47:32;0.82;;;0.70;;
17340;SDS011;8788;49.930;8.660;2023-05-16T06:50:00;1.65;;;0.77;;
17340;SDS011;8788;49.930;8.660;2023-05-16T06:52:27;1.17;;;0.82;;
17340;SDS011;8788;49.930;8.660;2023-05-16T06:54:54;2.60;;;0.75;;
17340;SDS011;8788;49.930;8.660;2023-05-16T06:57:21;3.10;;;1.00;;
17340;SDS011;8788;49.930;8.660;2023-05-16T06:59:48;1.25;;;1.13;;
17340;SDS011;8788;49.930;8.660;2023-05-16T07:02:15;2.25;;;1.20;;
17340;SDS011;8788;49.930;8.660;2023-05-16T07:04:42;1.05;;;0.93;;
17340;SDS011;8788;49.930;8.660;2023-05-16T07:07:11;1.20;;;1.10;;
17340;SDS011;8788;49.930;8.660;2023-05-16T07:09:38;4.45;;;1.30;;
17340;SDS011;8788;49.930;8.660;2023-05-16T07:12:06;1.45;;;1.35;;
17340;SDS011;8788;49.930;8.660;2023-05-16T07:14:33;1.10;;;1.10;;
17340;SDS011;8788;49.930;8.660;2023-05-16T07:17:00;1.02;;;0.93;;
17340;SDS011;8788;49.930;8.660;2023-05-16T07:19:27;0.95;;;0.95;;
17340;SDS011;8788;49.930;8.660;2023-05-16T07:21:54;1.30;;;1.20;;
17340;SDS011;8788;49.930;8.660;2023-05-16T07:24:23;1.98;;;1.00;;
17340;SDS011;8788;49.930;8.660;2023-05-16T07:26:50;1.67;;;1.10;;
17340;SDS011;8788;49.930;8.660;2023-05-16T07:29:17;1.10;;;1.05;;
17340;SDS011;8788;49.930;8.660;2023-05-16T07:31:44;1.20;;;1.10;;
17340;SDS011;8788;49.930;8.660;2023-05-16T07:34:11;1.38;;;1.13;;
17340;SDS011;8788;49.930;8.660;2023-05-16T07:36:38;1.02;;;0.90;;
17340;SDS011;8788;49.930;8.660;2023-05-16T07:39:05;1.20;;;1.10;;
17340;SDS011;8788;49.930;8.660;2023-05-16T07:41:34;1.30;;;1.20;;
17340;SDS011;8788;49.930;8.660;2023-05-16T07:44:01;1.13;;;1.02;;
17340;SDS011;8788;49.930;8.660;2023-05-16T07:46:28;4.28;;;1.15;;
17340;SDS011;8788;49.930;8.660;2023-05-16T07:48:55;1.67;;;1.05;;
17340;SDS011;8788;49.930;8.660;2023-05-16T07:51:22;2.13;;;1.77;;
17340;SDS011;8788;49.930;8.660;2023-05-16T07:53:49;1.38;;;1.27;;
17340;SDS011;8788;49.930;8.660;2023-05-16T07:56:16;1.25;;;1.02;;
17340;SDS011;8788;49.930;8.660;2023-05-16T07:58:45;1.73;;;0.90;;
17340;SDS011;8788;49.930;8.660;2023-05-16T08:01:13;0.70;;;0.70;;
17340;SDS011;8788;49.930;8.660;2023-05-16T08:03:41;0.60;;;0.60;;
17340;SDS011;8788;49.930;8.660;2023-05-16T08:06:08;0.77;;;0.75;;
17340;SDS011;8788;49.930;8.660;2023-05-16T08:08:35;0.63;;;0.63;;
17340;SDS011;8788;49.930;8.660;2023-05-16T08:11:02;2.33;;;0.50;;
17340;SDS011;8788;49.930;8.660;2023-05-16T08:13:30;0.60;;;0.60;;
17340;SDS011;8788;49.930;8.660;2023-05-16T08:15:59;4.68;;;1.30;;
17340;SDS011;8788;49.930;8.660;2023-05-16T08:18:26;1.65;;;0.38;;
17340;SDS011;8788;49.930;8.660;2023-05-16T08:20:53;0.30;;;0.30;;
17340;SDS011;8788;49.930;8.660;2023-05-16T08:23:20;0.70;;;0.30;;
17340;SDS011;8788;49.930;8.660;2023-05-16T08:25:47;0.80;;;0.30;;
17340;SDS011;8788;49.930;8.660;2023-05-16T08:28:14;0.28;;;0.28;;
17340;SDS011;8788;49.930;8.660;2023-05-16T08:30:41;0.40;;;0.40;;
17340;SDS011;8788;49.930;8.660;2023-05-16T08:33:10;0.55;;;0.50;;
17340;SDS011;8788;49.930;8.660;2023-05-16T08:35:37;0.22;;;0.22;;
17340;SDS011;8788;49.930;8.660;2023-05-16T08:38:07;0.32;;;0.20;;
17340;SDS011;8788;49.930;8.660;2023-05-16T08:40:35;0.20;;;0.20;;
17340;SDS011;8788;49.930;8.660;2023-05-16T08:43:02;0.20;;;0.20;;
17340;SDS011;8788;49.930;8.660;2023-05-16T08:45:29;1.98;;;0.40;;
17340;SDS011;8788;49.930;8.660;2023-05-16T08:47:57;4.32;;;0.40;;
17340;SDS011;8788;49.930;8.660;2023-05-16T08:50:29;0.10;;;0.10;;
17340;SDS011;8788;49.930;8.660;2023-05-16T08:52:57;1.73;;;0.70;;
17340;SDS011;8788;49.930;8.660;2023-05-16T08:55:31;0.40;;;0.40;;
17340;SDS011;8788;49.930;8.660;2023-05-16T08:57:58;0.40;;;0.40;;
17340;SDS011;8788;49.930;8.660;2023-05-16T09:00:26;0.30;;;0.30;;
17340;SDS011;8788;49.930;8.660;2023-05-16T09:02:53;1.38;;;0.70;;
17340;SDS011;8788;49.930;8.660;2023-05-16T09:05:21;1.90;;;0.60;;
17340;SDS011;8788;49.930;8.660;2023-05-16T09:07:50;1.23;;;0.50;;
17340;SDS011;8788;49.930;8.660;2023-05-16T09:10:17;0.60;;;0.50;;
17340;SDS011;8788;49.930;8.660;2023-05-16T09:12:45;1.48;;;0.43;;
17340;SDS011;8788;49.930;8.660;2023-05-16T09:15:12;0.80;;;0.60;;
17340;SDS011;8788;49.930;8.660;2023-05-16T09:17:39;1.15;;;0.85;;
17340;SDS011;8788;49.930;8.660;2023-05-16T09:20:09;2.17;;;0.50;;
17340;SDS011;8788;49.930;8.660;2023-05-16T09:22:37;0.57;;;0.47;;
17340;SDS011;8788;49.930;8.660;2023-05-16T09:25:07;0.57;;;0.50;;
17340;SDS011;8788;49.930;8.660;2023-05-16T09:27:34;0.95;;;0.65;;
17340;SDS011;8788;49.930;8.660;2023-05-16T09:30:01;0.68;;;0.60;;
17340;SDS011;8788;49.930;8.660;2023-05-16T09:32:30;0.60;;;0.60;;
17340;SDS011;8788;49.930;8.660;2023-05-16T09:34:57;0.40;;;0.40;;
17340;SDS011;8788;49.930;8.660;2023-05-16T09:37:24;1.33;;;0.47;;
17340;SDS011;8788;49.930;8.660;2023-05-16T09:39:51;2.00;;;0.60;;
17340;SDS011;8788;49.930;8.660;2023-05-16T09:42:21;0.85;;;0.60;;
17340;SDS011;8788;49.930;8.660;2023-05-16T09:44:51;1.10;;;0.57;;
17340;SDS011;8788;49.930;8.660;2023-05-16T09:47:21;0.60;;;0.60;;
17340;SDS011;8788;49.930;8.660;2023-05-16T09:49:50;1.10;;;0.70;;
17340;SDS011;8788;49.930;8.660;2023-05-16T09:52:18;0.80;;;0.70;;
17340;SDS011;8788;49.930;8.660;2023-05-16T09:54:45;1.02;;;0.70;;
17340;SDS011;8788;49.930;8.660;2023-05-16T09:57:16;0.85;;;0.60;;
17340;SDS011;8788;49.930;8.660;2023-05-16T09:59:45;1.75;;;0.63;;
17340;SDS011;8788;49.930;8.660;2023-05-16T10:02:13;1.13;;;0.80;;
17340;SDS011;8788;49.930;8.660;2023-05-16T10:04:40;2.00;;;0.77;;
17340;SDS011;8788;49.930;8.660;2023-05-16T10:07:08;0.80;;;0.65;;
17340;SDS011;8788;49.930;8.660;2023-05-16T10:09:38;3.50;;;0.77;;
17340;SDS011;8788;49.930;8.660;2023-05-16T10:12:06;4.03;;;0.90;;
17340;SDS011;8788;49.930;8.660;2023-05-16T10:14:36;1.45;;;0.65;;
17340;SDS011;8788;49.930;8.660;2023-05-16T10:17:06;0.68;;;0.60;;
17340;SDS011;8788;49.930;8.660;2023-05-16T10:19:35;2.70;;;0.80;;
17340;SDS011;8788;49.930;8.660;2023-05-16T10:22:05;0.82;;;0.70;;
17340;SDS011;8788;49.930;8.660;2023-05-16T10:24:36;0.75;;;0.60;;
17340;SDS011;8788;49.930;8.660;2023-05-16T10:27:09;4.32;;;0.80;;
17340;SDS011;8788;49.930;8.660;2023-05-16T10:29:36;0.80;;;0.77;;
17340;SDS011;8788;49.930;8.660;2023-05-16T10:32:06;1.90;;;0.68;;
17340;SDS011;8788;49.930;8.660;2023-05-16T10:34:34;2.63;;;1.10;;
17340;SDS011;8788;49.930;8.660;2023-05-16T10:37:01;0.73;;;0.68;;
17340;SDS011;8788;49.930;8.660;2023-05-16T10:39:30;1.13;;;0.70;;
17340;SDS011;8788;49.930;8.660;2023-05-16T10:41:58;1.95;;;0.93;;
17340;SDS011;8788;49.930;8.660;2023-05-16T10:44:25;1.00;;;0.60;;
17340;SDS011;8788;49.930;8.660;2023-05-16T10:46:57;2.38;;;0.77;;
17340;SDS011;8788;49.930;8.660;2023-05-16T10:49:26;2.58;;;0.93;;
17340;SDS011;8788;49.930;8.660;2023-05-16T10:52:03;1.77;;;0.70;;
17340;SDS011;8788;49.930;8.660;2023-05-16T10:54:36;1.55;;;0.82;;
17340;SDS011;8788;49.930;8.660;2023-05-16T10:57:08;1.27;;;0.85;;
17340;SDS011;8788;49.930;8.660;2023-05-16T10:59:39;1.73;;;0.90;;
17340;SDS011;8788;49.930;8.660;2023-05-16T11:04:55;2.00;;;1.02;;
17340;SDS011;8788;49.930;8.660;2023-05-16T11:07:24;2.95;;;1.20;;
17340;SDS011;8788;49.930;8.660;2023-05-16T11:09:52;3.70;;;1.02;;
17340;SDS011;8788;49.930;8.660;2023-05-16T11:12:36;1.58;;;0.88;;
17340;SDS011;8788;49.930;8.660;2023-05-16T11:15:16;1.90;;;1.00;;
17340;SDS011;8788;49.930;8.660;2023-05-16T11:17:44;2.40;;;1.30;;
17340;SDS011;8788;49.930;8.660;2023-05-16T11:20:25;4.10;;;1.65;;
17340;SDS011;8788;49.930;8.660;2023-05-16T11:25:45;1.42;;;1.02;;
17340;SDS011;8788;49.930;8.660;2023-05-16T11:28:16;5.10;;;1.30;;
17340;SDS011;8788;49.930;8.660;2023-05-16T11:30:50;3.88;;;1.13;;
17340;SDS011;8788;49.930;8.660;2023-05-16T11:33:21;7.25;;;2.00;;
17340;SDS011;8788;49.930;8.660;2023-05-16T11:36:03;4.60;;;1.35;;
17340;SDS011;8788;49.930;8.660;2023-05-16T11:38:32;4.30;;;1.25;;
17340;SDS011;8788;49.930;8.660;2023-05-16T11:41:00;4.00;;;0.90;;
17340;SDS011;8788;49.930;8.660;2023-05-16T11:43:38;6.30;;;1.35;;
17340;SDS011;8788;49.930;8.660;2023-05-16T11:46:06;1.70;;;1.13;;
17340;SDS011;8788;49.930;8.660;2023-05-16T11:48:36;3.03;;;1.13;;
17340;SDS011;8788;49.930;8.660;2023-05-16T11:51:05;4.28;;;1.60;;
17340;SDS011;8788;49.930;8.660;2023-05-16T11:53:33;2.92;;;0.80;;
17340;SDS011;8788;49.930;8.660;2023-05-16T11:56:00;2.38;;;1.05;;
17340;SDS011;8788;49.930;8.660;2023-05-16T11:58:27;2.83;;;1.05;;
17340;SDS011;8788;49.930;8.660;2023-05-16T12:00:55;4.03;;;1.20;;
17340;SDS011;8788;49.930;8.660;2023-05-16T12:03:22;3.17;;;1.27;;
17340;SDS011;8788;49.930;8.660;2023-05-16T12:05:49;3.42;;;1.15;;
17340;SDS011;8788;49.930;8.660;2023-05-16T12:08:19;2.95;;;1.05;;
17340;SDS011;8788;49.930;8.660;2023-05-16T12:10:49;2.60;;;1.10;;
17340;SDS011;8788;49.930;8.660;2023-05-16T12:13:17;3.15;;;1.40;;
17340;SDS011;8788;49.930;8.660;2023-05-16T12:15:45;4.15;;;0.95;;
17340;SDS011;8788;49.930;8.660;2023-05-16T12:18:13;3.72;;;0.75;;
17340;SDS011;8788;49.930;8.660;2023-05-16T12:20:41;7.15;;;1.30;;
17340;SDS011;8788;49.930;8.660;2023-05-16T12:23:09;3.22;;;0.82;;
17340;SDS011;8788;49.930;8.660;2023-05-16T12:25:39;3.63;;;1.10;;
17340;SDS011;8788;49.930;8.660;2023-05-16T12:28:10;2.60;;;0.70;;
17340;SDS011;8788;49.930;8.660;2023-05-16T12:30:39;2.50;;;0.88;;
17340;SDS011;8788;49.930;8.660;2023-05-16T12:33:09;3.70;;;0.98;;
17340;SDS011;8788;49.930;8.660;2023-05-16T12:35:37;3.47;;;0.73;;
17340;SDS011;8788;49.930;8.660;2023-05-16T12:38:05;3.35;;;1.30;;
17340;SDS011;8788;49.930;8.660;2023-05-16T12:40:35;4.00;;;0.93;;
17340;SDS011;8788;49.930;8.660;2023-05-16T12:43:05;3.47;;;1.55;;
17340;SDS011;8788;49.930;8.660;2023-05-16T12:45:38;2.28;;;1.00;;
17340;SDS011;8788;49.930;8.660;2023-05-16T12:48:10;2.03;;;0.90;;
17340;SDS011;8788;49.930;8.660;2023-05-16T12:50:38;3.33;;;1.00;;
17340;SDS011;8788;49.930;8.660;2023-05-16T12:53:09;3.70;;;0.77;;
17340;SDS011;8788;49.930;8.660;2023-05-16T12:55:38;3.70;;;1.00;;
17340;SDS011;8788;49.930;8.660;2023-05-16T12:58:06;3.05;;;0.93;;
17340;SDS011;8788;49.930;8.660;2023-05-16T13:00:34;4.10;;;0.65;;
17340;SDS011;8788;49.930;8.660;2023-05-16T13:03:02;2.65;;;1.08;;
17340;SDS011;8788;49.930;8.660;2023-05-16T13:05:30;3.78;;;1.00;;
17340;SDS011;8788;49.930;8.660;2023-05-16T13:07:57;2.28;;;0.93;;
17340;SDS011;8788;49.930;8.660;2023-05-16T13:10:24;2.92;;;0.93;;
17340;SDS011;8788;49.930;8.660;2023-05-16T13:12:51;2.88;;;1.00;;
17340;SDS011;8788;49.930;8.660;2023-05-16T13:15:23;3.88;;;0.90;;
17340;SDS011;8788;49.930;8.660;2023-05-16T13:17:51;1.45;;;0.80;;
17340;SDS011;8788;49.930;8.660;2023-05-16T13:20:18;5.07;;;0.80;;
17340;SDS011;8788;49.930;8.660;2023-05-16T13:22:45;2.60;;;0.75;;
17340;SDS011;8788;49.930;8.660;2023-05-16T13:25:13;1.20;;;0.95;;
17340;SDS011;8788;49.930;8.660;2023-05-16T13:27:40;3.67;;;0.85;;
17340;SDS011;8788;49.930;8.660;2023-05-16T13:30:07;1.58;;;0.65;;
17340;SDS011;8788;49.930;8.660;2023-05-16T13:32:37;4.00;;;0.80;;
17340;SDS011;8788;49.930;8.660;2023-05-16T13:35:04;2.08;;;0.90;;
17340;SDS011;8788;49.930;8.660;2023-05-16T13:37:32;2.70;;;1.02;;
17340;SDS011;8788;49.930;8.660;2023-05-16T13:39:59;3.47;;;0.80;;
17340;SDS011;8788;49.930;8.660;2023-05-16T13:42:26;1.85;;;0.98;;
17340;SDS011;8788;49.930;8.660;2023-05-16T13:44:53;2.15;;;0.70;;
17340;SDS011;8788;49.930;8.660;2023-05-16T13:47:20;4.38;;;0.68;;
17340;SDS011;8788;49.930;8.660;2023-05-16T13:49:48;1.88;;;0.60;;
17340;SDS011;8788;49.930;8.660;2023-05-16T13:52:16;2.63;;;0.85;;
17340;SDS011;8788;49.930;8.660;2023-05-16T13:54:43;2.35;;;0.85;;
17340;SDS011;8788;49.930;8.660;2023-05-16T13:57:10;0.82;;;0.50;;
17340;SDS011;8788;49.930;8.660;2023-05-16T13:59:37;3.28;;;0.90;;
17340;SDS011;8788;49.930;8.660;2023-05-16T14:02:04;2.60;;;0.50;;
17340;SDS011;8788;49.930;8.660;2023-05-16T14:04:31;4.90;;;0.80;;
17340;SDS011;8788;49.930;8.660;2023-05-16T14:07:00;2.92;;;0.80;;
17340;SDS011;8788;49.930;8.660;2023-05-16T14:09:27;3.10;;;0.73;;
17340;SDS011;8788;49.930;8.660;2023-05-16T14:11:54;1.70;;;0.60;;
17340;SDS011;8788;49.930;8.660;2023-05-16T14:14:21;4.20;;;0.80;;
17340;SDS011;8788;49.930;8.660;2023-05-16T14:16:48;3.17;;;0.80;;
17340;SDS011;8788;49.930;8.660;2023-05-16T14:19:15;3.47;;;0.73;;
17340;SDS011;8788;49.930;8.660;2023-05-16T14:21:42;4.57;;;0.73;;
17340;SDS011;8788;49.930;8.660;2023-05-16T14:24:11;4.13;;;0.90;;
17340;SDS011;8788;49.930;8.660;2023-05-16T14:26:38;3.03;;;1.00;;
17340;SDS011;8788;49.930;8.660;2023-05-16T14:29:05;2.15;;;0.50;;
17340;SDS011;8788;49.930;8.660;2023-05-16T14:31:32;2.65;;;1.00;;
17340;SDS011;8788;49.930;8.660;2023-05-16T14:34:00;3.65;;;0.77;;
17340;SDS011;8788;49.930;8.660;2023-05-16T14:36:27;3.08;;;0.65;;
17340;SDS011;8788;49.930;8.660;2023-05-16T14:38:56;6.75;;;0.95;;
17340;SDS011;8788;49.930;8.660;2023-05-16T14:41:24;2.88;;;1.00;;
17340;SDS011;8788;49.930;8.660;2023-05-16T14:43:51;3.42;;;1.30;;
17340;SDS011;8788;49.930;8.660;2023-05-16T14:46:18;3.05;;;0.85;;
17340;SDS011;8788;49.930;8.660;2023-05-16T14:48:45;2.00;;;0.80;;
17340;SDS011;8788;49.930;8.660;2023-05-16T14:51:12;6.45;;;2.28;;
17340;SDS011;8788;49.930;8.660;2023-05-16T14:53:39;3.97;;;0.60;;
17340;SDS011;8788;49.930;8.660;2023-05-16T14:56:06;1.95;;;0.80;;
17340;SDS011;8788;49.930;8.660;2023-05-16T14:58:35;2.10;;;0.70;;
17340;SDS011;8788;49.930;8.660;2023-05-16T15:01:02;3.20;;;1.08;;
17340;SDS011;8788;49.930;8.660;2023-05-16T15:03:29;2.70;;;1.00;;
17340;SDS011;8788;49.930;8.660;2023-05-16T15:05:57;2.92;;;0.82;;